sensor_id;sensor_type;location;lat;lon;timestamp;temperature;humidity
42135;DHT22;28312;43.460;11.810;2023-06-22T00:00:40;20.80;59.20
42135;DHT22;28312;43.460;11.810;2023-06-22T00:04:46;20.70;59.20
42135;DHT22;28312;43.460;11.810;2023-06-22T00:08:50;20.70;59.30
42135;DHT22;28312;43.460;11.810;2023-06-22T00:12:53;20.60;59.50
42135;DHT22;28312;43.460;11.810;2023-06-22T00:16:56;20.60;59.50
42135;DHT22;28312;43.460;11.810;2023-06-22T00:21:01;20.50;59.60
42135;DHT22;28312;43.460;11.810;2023-06-22T00:25:07;20.40;59.60
42135;DHT22;28312;43.460;11.810;2023-06-22T00:29:10;20.30;59.90
42135;DHT22;28312;43.460;11.810;2023-06-22T00:33:13;20.30;59.90
42135;DHT22;28312;43.460;11.810;2023-06-22T00:37:18;20.20;59.90
42135;DHT22;28312;43.460;11.810;2023-06-22T00:41:21;20.20;60.10
42135;DHT22;28312;43.460;11.810;2023-06-22T00:45:26;20.20;60.10
42135;DHT22;28312;43.460;11.810;2023-06-22T00:49:30;20.10;60.20
42135;DHT22;28312;43.460;11.810;2023-06-22T00:53:34;20.10;60.20
42135;DHT22;28312;43.460;11.810;2023-06-22T00:57:38;20.00;60.30
42135;DHT22;28312;43.460;11.810;2023-06-22T01:01:41;19.90;60.40
42135;DHT22;28312;43.460;11.810;2023-06-22T01:05:47;19.90;60.50
42135;DHT22;28312;43.460;11.810;2023-06-22T01:10:09;19.90;60.50
42135;DHT22;28312;43.460;11.810;2023-06-22T01:14:22;19.90;60.50
42135;DHT22;28312;43.460;11.810;2023-06-22T01:18:30;19.80;60.60
42135;DHT22;28312;43.460;11.810;2023-06-22T01:31:18;19.60;61.00
42135;DHT22;28312;43.460;11.810;2023-06-22T01:35:23;19.60;61.10
42135;DHT22;28312;43.460;11.810;2023-06-22T01:39:29;19.50;61.10
42135;DHT22;28312;43.460;11.810;2023-06-22T01:43:36;19.50;61.10
42135;DHT22;28312;43.460;11.810;2023-06-22T01:47:40;19.40;61.10
42135;DHT22;28312;43.460;11.810;2023-06-22T01:51:45;19.40;61.30
42135;DHT22;28312;43.460;11.810;2023-06-22T01:55:48;19.30;61.40
42135;DHT22;28312;43.460;11.810;2023-06-22T02:00:03;19.30;61.40
42135;DHT22;28312;43.460;11.810;2023-06-22T02:04:22;19.20;61.30
42135;DHT22;28312;43.460;11.810;2023-06-22T02:08:38;19.20;61.40
42135;DHT22;28312;43.460;11.810;2023-06-22T02:12:44;19.20;61.40
42135;DHT22;28312;43.460;11.810;2023-06-22T02:16:50;19.10;61.50
42135;DHT22;28312;43.460;11.810;2023-06-22T02:20:54;19.10;61.60
42135;DHT22;28312;43.460;11.810;2023-06-22T02:24:58;19.00;61.70
42135;DHT22;28312;43.460;11.810;2023-06-22T02:29:01;19.00;61.70
42135;DHT22;28312;43.460;11.810;2023-06-22T02:33:05;18.90;61.70
42135;DHT22;28312;43.460;11.810;2023-06-22T02:37:08;18.90;61.60
42135;DHT22;28312;43.460;11.810;2023-06-22T02:41:15;18.90;61.80
42135;DHT22;28312;43.460;11.810;2023-06-22T02:45:24;18.80;61.90
42135;DHT22;28312;43.460;11.810;2023-06-22T02:49:27;18.70;62.00
42135;DHT22;28312;43.460;11.810;2023-06-22T02:53:31;18.70;62.10
42135;DHT22;28312;43.460;11.810;2023-06-22T02:57:36;18.70;62.20
42135;DHT22;28312;43.460;11.810;2023-06-22T03:01:39;18.70;62.20
42135;DHT22;28312;43.460;11.810;2023-06-22T03:06:02;18.60;62.30
42135;DHT22;28312;43.460;11.810;2023-06-22T03:10:07;18.50;62.40
42135;DHT22;28312;43.460;11.810;2023-06-22T03:14:15;18.40;62.50
42135;DHT22;28312;43.460;11.810;2023-06-22T03:18:18;18.40;62.60
42135;DHT22;28312;43.460;11.810;2023-06-22T03:22:21;18.40;62.60
42135;DHT22;28312;43.460;11.810;2023-06-22T03:26:25;18.30;62.60
42135;DHT22;28312;43.460;11.810;2023-06-22T03:30:30;18.30;62.60
42135;DHT22;28312;43.460;11.810;2023-06-22T03:34:36;18.30;62.70
42135;DHT22;28312;43.460;11.810;2023-06-22T03:38:39;18.20;62.60
42135;DHT22;28312;43.460;11.810;2023-06-22T03:42:46;18.20;62.70
42135;DHT22;28312;43.460;11.810;2023-06-22T03:46:49;18.10;62.80
42135;DHT22;28312;43.460;11.810;2023-06-22T03:50:54;18.10;62.80
42135;DHT22;28312;43.460;11.810;2023-06-22T03:54:58;18.20;62.80
42135;DHT22;28312;43.460;11.810;2023-06-22T03:59:01;18.10;62.90
42135;DHT22;28312;43.460;11.810;2023-06-22T04:03:05;18.10;63.00
42135;DHT22;28312;43.460;11.810;2023-06-22T04:07:12;18.00;63.10
42135;DHT22;28312;43.460;11.810;2023-06-22T04:11:16;18.00;63.20
42135;DHT22;28312;43.460;11.810;2023-06-22T04:15:19;18.00;63.20
42135;DHT22;28312;43.460;11.810;2023-06-22T04:19:24;18.00;63.40
42135;DHT22;28312;43.460;11.810;2023-06-22T04:23:27;18.10;63.50
42135;DHT22;28312;43.460;11.810;2023-06-22T04:27:30;18.10;63.50
42135;DHT22;28312;43.460;11.810;2023-06-22T04:31:35;18.10;63.60
42135;DHT22;28312;43.460;11.810;2023-06-22T04:35:44;18.20;63.70
42135;DHT22;28312;43.460;11.810;2023-06-22T04:39:49;18.30;63.80
42135;DHT22;28312;43.460;11.810;2023-06-22T04:43:53;18.40;63.80
42135;DHT22;28312;43.460;11.810;2023-06-22T04:47:57;18.60;63.90
42135;DHT22;28312;43.460;11.810;2023-06-22T04:52:02;18.70;64.00
42135;DHT22;28312;43.460;11.810;2023-06-22T04:56:06;18.80;64.00
42135;DHT22;28312;43.460;11.810;2023-06-22T05:00:10;18.90;64.00
42135;DHT22;28312;43.460;11.810;2023-06-22T05:04:20;19.10;64.10
42135;DHT22;28312;43.460;11.810;2023-06-22T05:08:24;19.20;64.10
42135;DHT22;28312;43.460;11.810;2023-06-22T05:12:30;19.40;64.20
42135;DHT22;28312;43.460;11.810;2023-06-22T05:16:33;19.60;64.20
42135;DHT22;28312;43.460;11.810;2023-06-22T05:20:40;19.80;64.30
42135;DHT22;28312;43.460;11.810;2023-06-22T05:24:45;20.10;64.20
42135;DHT22;28312;43.460;11.810;2023-06-22T05:28:49;20.30;64.20
42135;DHT22;28312;43.460;11.810;2023-06-22T05:32:53;20.60;64.20
42135;DHT22;28312;43.460;11.810;2023-06-22T05:36:56;20.80;64.20
42135;DHT22;28312;43.460;11.810;2023-06-22T05:41:03;21.10;64.20
42135;DHT22;28312;43.460;11.810;2023-06-22T05:45:07;21.40;64.10
42135;DHT22;28312;43.460;11.810;2023-06-22T05:49:12;21.70;64.00
42135;DHT22;28312;43.460;11.810;2023-06-22T05:53:17;21.90;63.90
42135;DHT22;28312;43.460;11.810;2023-06-22T05:57:20;22.20;63.80
42135;DHT22;28312;43.460;11.810;2023-06-22T06:01:24;22.50;63.60
42135;DHT22;28312;43.460;11.810;2023-06-22T06:05:34;22.70;63.50
42135;DHT22;28312;43.460;11.810;2023-06-22T06:09:38;22.90;63.30
42135;DHT22;28312;43.460;11.810;2023-06-22T06:13:41;23.20;63.20
42135;DHT22;28312;43.460;11.810;2023-06-22T06:17:49;23.40;63.00
42135;DHT22;28312;43.460;11.810;2023-06-22T06:21:54;23.60;62.90
42135;DHT22;28312;43.460;11.810;2023-06-22T06:25:58;23.70;62.80
42135;DHT22;28312;43.460;11.810;2023-06-22T06:30:02;24.00;62.70
42135;DHT22;28312;43.460;11.810;2023-06-22T06:34:06;24.20;62.60
42135;DHT22;28312;43.460;11.810;2023-06-22T06:38:10;24.40;62.50
42135;DHT22;28312;43.460;11.810;2023-06-22T06:42:14;24.60;62.40
42135;DHT22;28312;43.460;11.810;2023-06-22T06:46:17;24.80;62.30
42135;DHT22;28312;43.460;11.810;2023-06-22T06:50:22;25.00;62.20
42135;DHT22;28312;43.460;11.810;2023-06-22T06:54:26;25.20;62.00
42135;DHT22;28312;43.460;11.810;2023-06-22T06:58:31;25.40;61.80
42135;DHT22;28312;43.460;11.810;2023-06-22T07:02:34;25.60;61.70
42135;DHT22;28312;43.460;11.810;2023-06-22T07:06:38;25.70;61.60
42135;DHT22;28312;43.460;11.810;2023-06-22T07:10:42;25.90;61.40
42135;DHT22;28312;43.460;11.810;2023-06-22T07:14:45;26.10;61.10
42135;DHT22;28312;43.460;11.810;2023-06-22T07:18:48;26.10;61.00
42135;DHT22;28312;43.460;11.810;2023-06-22T07:22:52;26.20;60.90
42135;DHT22;28312;43.460;11.810;2023-06-22T07:26:56;26.20;61.00
42135;DHT22;28312;43.460;11.810;2023-06-22T07:31:00;26.30;61.10
42135;DHT22;28312;43.460;11.810;2023-06-22T07:35:04;26.50;61.00
42135;DHT22;28312;43.460;11.810;2023-06-22T07:39:07;26.50;60.80
42135;DHT22;28312;43.460;11.810;2023-06-22T07:43:11;26.60;61.00
42135;DHT22;28312;43.460;11.810;2023-06-22T07:47:14;27.00;60.90
42135;DHT22;28312;43.460;11.810;2023-06-22T07:51:21;27.10;60.60
42135;DHT22;28312;43.460;11.810;2023-06-22T07:55:27;27.20;60.50
42135;DHT22;28312;43.460;11.810;2023-06-22T07:59:31;27.40;60.30
42135;DHT22;28312;43.460;11.810;2023-06-22T08:03:34;27.50;60.20
42135;DHT22;28312;43.460;11.810;2023-06-22T08:07:40;27.60;60.30
42135;DHT22;28312;43.460;11.810;2023-06-22T08:11:44;27.80;60.10
42135;DHT22;28312;43.460;11.810;2023-06-22T08:15:47;27.90;59.90
42135;DHT22;28312;43.460;11.810;2023-06-22T08:19:52;28.10;59.90
42135;DHT22;28312;43.460;11.810;2023-06-22T08:23:55;28.20;59.80
42135;DHT22;28312;43.460;11.810;2023-06-22T08:27:59;28.50;59.60
42135;DHT22;28312;43.460;11.810;2023-06-22T08:32:03;28.60;59.60
42135;DHT22;28312;43.460;11.810;2023-06-22T08:36:06;28.80;59.20
42135;DHT22;28312;43.460;11.810;2023-06-22T08:40:11;29.00;59.00
42135;DHT22;28312;43.460;11.810;2023-06-22T08:44:18;29.00;59.00
42135;DHT22;28312;43.460;11.810;2023-06-22T08:48:21;29.20;59.00
42135;DHT22;28312;43.460;11.810;2023-06-22T08:52:24;29.40;58.70
42135;DHT22;28312;43.460;11.810;2023-06-22T08:56:28;29.50;58.80
42135;DHT22;28312;43.460;11.810;2023-06-22T09:00:31;29.80;58.50
42135;DHT22;28312;43.460;11.810;2023-06-22T09:04:38;29.90;58.30
42135;DHT22;28312;43.460;11.810;2023-06-22T09:08:41;30.10;58.20
42135;DHT22;28312;43.460;11.810;2023-06-22T09:12:45;30.20;57.80
42135;DHT22;28312;43.460;11.810;2023-06-22T09:16:49;30.30;57.70
42135;DHT22;28312;43.460;11.810;2023-06-22T09:20:52;30.50;57.90
42135;DHT22;28312;43.460;11.810;2023-06-22T09:24:57;30.70;57.70
42135;DHT22;28312;43.460;11.810;2023-06-22T09:29:00;30.90;57.40
42135;DHT22;28312;43.460;11.810;2023-06-22T09:33:04;31.10;57.40
42135;DHT22;28312;43.460;11.810;2023-06-22T09:37:07;31.20;57.40
42135;DHT22;28312;43.460;11.810;2023-06-22T09:41:10;31.40;57.30
42135;DHT22;28312;43.460;11.810;2023-06-22T09:45:14;31.40;57.00
42135;DHT22;28312;43.460;11.810;2023-06-22T09:49:17;31.60;56.90
42135;DHT22;28312;43.460;11.810;2023-06-22T09:53:30;31.70;56.90
42135;DHT22;28312;43.460;11.810;2023-06-22T09:57:33;31.90;56.80
42135;DHT22;28312;43.460;11.810;2023-06-22T10:01:36;32.10;56.60
42135;DHT22;28312;43.460;11.810;2023-06-22T10:05:40;32.20;56.60
42135;DHT22;28312;43.460;11.810;2023-06-22T10:09:44;32.50;56.50
42135;DHT22;28312;43.460;11.810;2023-06-22T10:13:47;32.80;56.40
42135;DHT22;28312;43.460;11.810;2023-06-22T10:17:51;33.10;56.10
42135;DHT22;28312;43.460;11.810;2023-06-22T10:21:54;33.20;55.80
42135;DHT22;28312;43.460;11.810;2023-06-22T10:25:58;33.30;55.90
42135;DHT22;28312;43.460;11.810;2023-06-22T10:30:02;33.50;55.60
42135;DHT22;28312;43.460;11.810;2023-06-22T10:34:06;33.60;55.50
42135;DHT22;28312;43.460;11.810;2023-06-22T10:38:10;33.70;55.00
42135;DHT22;28312;43.460;11.810;2023-06-22T10:42:14;33.90;54.60
42135;DHT22;28312;43.460;11.810;2023-06-22T10:46:17;34.00;54.50
42135;DHT22;28312;43.460;11.810;2023-06-22T10:50:21;34.10;54.50
42135;DHT22;28312;43.460;11.810;2023-06-22T10:54:27;34.20;54.50
42135;DHT22;28312;43.460;11.810;2023-06-22T10:58:30;34.40;54.10
42135;DHT22;28312;43.460;11.810;2023-06-22T11:02:34;34.50;53.90
42135;DHT22;28312;43.460;11.810;2023-06-22T11:06:38;34.60;53.50
42135;DHT22;28312;43.460;11.810;2023-06-22T11:10:43;34.50;53.00
42135;DHT22;28312;43.460;11.810;2023-06-22T11:14:47;34.50;53.00
42135;DHT22;28312;43.460;11.810;2023-06-22T11:18:53;34.60;52.90
42135;DHT22;28312;43.460;11.810;2023-06-22T11:22:56;34.60;52.70
42135;DHT22;28312;43.460;11.810;2023-06-22T11:27:02;34.60;52.90
42135;DHT22;28312;43.460;11.810;2023-06-22T11:31:05;34.70;52.70
42135;DHT22;28312;43.460;11.810;2023-06-22T11:35:27;34.80;52.50
42135;DHT22;28312;43.460;11.810;2023-06-22T11:39:31;34.80;52.50
42135;DHT22;28312;43.460;11.810;2023-06-22T11:43:45;35.00;52.60
42135;DHT22;28312;43.460;11.810;2023-06-22T11:47:50;35.10;52.10
42135;DHT22;28312;43.460;11.810;2023-06-22T11:51:54;35.10;51.70
42135;DHT22;28312;43.460;11.810;2023-06-22T11:55:58;35.10;51.70
42135;DHT22;28312;43.460;11.810;2023-06-22T12:00:06;35.30;51.60
42135;DHT22;28312;43.460;11.810;2023-06-22T12:04:17;35.40;51.50
42135;DHT22;28312;43.460;11.810;2023-06-22T12:08:21;35.50;51.30
42135;DHT22;28312;43.460;11.810;2023-06-22T12:12:25;35.60;51.20
42135;DHT22;28312;43.460;11.810;2023-06-22T12:16:28;35.80;51.10
42135;DHT22;28312;43.460;11.810;2023-06-22T12:20:32;36.00;50.70
42135;DHT22;28312;43.460;11.810;2023-06-22T12:24:35;35.80;50.20
42135;DHT22;28312;43.460;11.810;2023-06-22T12:28:39;35.60;50.10
42135;DHT22;28312;43.460;11.810;2023-06-22T12:32:42;35.60;50.50
42135;DHT22;28312;43.460;11.810;2023-06-22T12:36:46;35.80;50.70
42135;DHT22;28312;43.460;11.810;2023-06-22T12:40:52;36.00;50.30
42135;DHT22;28312;43.460;11.810;2023-06-22T12:44:55;36.00;50.10
42135;DHT22;28312;43.460;11.810;2023-06-22T12:48:58;36.00;49.90
42135;DHT22;28312;43.460;11.810;2023-06-22T12:53:04;36.10;50.00
42135;DHT22;28312;43.460;11.810;2023-06-22T12:57:09;36.30;50.00
42135;DHT22;28312;43.460;11.810;2023-06-22T13:01:12;36.50;49.80
42135;DHT22;28312;43.460;11.810;2023-06-22T13:05:16;36.60;49.40
42135;DHT22;28312;43.460;11.810;2023-06-22T13:09:19;36.60;49.40
42135;DHT22;28312;43.460;11.810;2023-06-22T13:13:25;36.70;49.40
42135;DHT22;28312;43.460;11.810;2023-06-22T13:17:29;36.90;49.40
42135;DHT22;28312;43.460;11.810;2023-06-22T13:21:33;37.00;49.20
42135;DHT22;28312;43.460;11.810;2023-06-22T13:25:37;37.10;49.10
42135;DHT22;28312;43.460;11.810;2023-06-22T13:29:40;37.20;48.90
42135;DHT22;28312;43.460;11.810;2023-06-22T13:33:44;37.10;48.70
42135;DHT22;28312;43.460;11.810;2023-06-22T13:37:50;37.00;48.30
42135;DHT22;28312;43.460;11.810;2023-06-22T13:41:54;36.60;48.40
42135;DHT22;28312;43.460;11.810;2023-06-22T13:45:57;36.30;48.60
42135;DHT22;28312;43.460;11.810;2023-06-22T13:50:01;36.30;48.60
42135;DHT22;28312;43.460;11.810;2023-06-22T13:54:04;36.30;48.70
42135;DHT22;28312;43.460;11.810;2023-06-22T13:58:16;36.50;48.60
42135;DHT22;28312;43.460;11.810;2023-06-22T14:02:20;36.70;48.40
42135;DHT22;28312;43.460;11.810;2023-06-22T14:06:24;36.80;48.20
42135;DHT22;28312;43.460;11.810;2023-06-22T14:10:27;36.70;47.40
42135;DHT22;28312;43.460;11.810;2023-06-22T14:14:33;36.70;47.50
42135;DHT22;28312;43.460;11.810;2023-06-22T14:18:37;36.70;47.40
42135;DHT22;28312;43.460;11.810;2023-06-22T14:22:40;36.70;47.40
42135;DHT22;28312;43.460;11.810;2023-06-22T14:26:44;36.70;47.10
42135;DHT22;28312;43.460;11.810;2023-06-22T14:30:47;36.60;46.90
42135;DHT22;28312;43.460;11.810;2023-06-22T14:34:51;36.60;46.90
42135;DHT22;28312;43.460;11.810;2023-06-22T14:38:54;36.60;47.00
42135;DHT22;28312;43.460;11.810;2023-06-22T14:42:58;36.60;47.00
42135;DHT22;28312;43.460;11.810;2023-06-22T14:47:01;36.70;47.00
42135;DHT22;28312;43.460;11.810;2023-06-22T14:51:05;36.80;47.00
42135;DHT22;28312;43.460;11.810;2023-06-22T14:55:08;36.90;46.90
42135;DHT22;28312;43.460;11.810;2023-06-22T14:59:12;37.00;46.80
42135;DHT22;28312;43.460;11.810;2023-06-22T15:03:16;37.00;46.60
42135;DHT22;28312;43.460;11.810;2023-06-22T15:07:25;36.70;46.60
42135;DHT22;28312;43.460;11.810;2023-06-22T15:11:28;36.50;46.80
42135;DHT22;28312;43.460;11.810;2023-06-22T15:15:32;36.40;46.90
42135;DHT22;28312;43.460;11.810;2023-06-22T15:19:36;36.30;46.80
42135;DHT22;28312;43.460;11.810;2023-06-22T15:23:46;36.20;47.00
42135;DHT22;28312;43.460;11.810;2023-06-22T15:27:49;36.20;46.80
42135;DHT22;28312;43.460;11.810;2023-06-22T15:31:53;36.10;46.70
42135;DHT22;28312;43.460;11.810;2023-06-22T15:35:57;36.00;46.80
42135;DHT22;28312;43.460;11.810;2023-06-22T15:40:01;35.80;46.70
42135;DHT22;28312;43.460;11.810;2023-06-22T15:44:04;35.60;46.70
42135;DHT22;28312;43.460;11.810;2023-06-22T15:48:08;35.40;46.80
42135;DHT22;28312;43.460;11.810;2023-06-22T15:52:11;35.10;46.90
42135;DHT22;28312;43.460;11.810;2023-06-22T15:56:15;35.10;47.00
42135;DHT22;28312;43.460;11.810;2023-06-22T16:00:19;35.00;47.00
42135;DHT22;28312;43.460;11.810;2023-06-22T16:04:25;35.00;47.10
42135;DHT22;28312;43.460;11.810;2023-06-22T16:08:28;35.00;47.20
42135;DHT22;28312;43.460;11.810;2023-06-22T16:12:34;34.90;47.10
42135;DHT22;28312;43.460;11.810;2023-06-22T16:16:37;34.80;47.20
42135;DHT22;28312;43.460;11.810;2023-06-22T16:20:40;34.60;47.20
42135;DHT22;28312;43.460;11.810;2023-06-22T16:24:44;34.50;47.40
42135;DHT22;28312;43.460;11.810;2023-06-22T16:28:47;34.30;47.60
42135;DHT22;28312;43.460;11.810;2023-06-22T16:32:55;34.30;47.80
42135;DHT22;28312;43.460;11.810;2023-06-22T16:37:01;34.10;48.10
42135;DHT22;28312;43.460;11.810;2023-06-22T16:41:05;34.10;48.20
42135;DHT22;28312;43.460;11.810;2023-06-22T16:45:13;34.10;48.30
42135;DHT22;28312;43.460;11.810;2023-06-22T16:49:17;34.00;48.20
42135;DHT22;28312;43.460;11.810;2023-06-22T16:53:20;34.00;48.10
42135;DHT22;28312;43.460;11.810;2023-06-22T16:57:25;33.80;48.00
42135;DHT22;28312;43.460;11.810;2023-06-22T17:01:29;33.70;48.00
42135;DHT22;28312;43.460;11.810;2023-06-22T17:05:37;33.60;48.10
42135;DHT22;28312;43.460;11.810;2023-06-22T17:09:44;33.60;48.20
42135;DHT22;28312;43.460;11.810;2023-06-22T17:13:48;33.50;48.20
42135;DHT22;28312;43.460;11.810;2023-06-22T17:17:54;33.50;48.40
42135;DHT22;28312;43.460;11.810;2023-06-22T17:21:58;33.50;48.40
42135;DHT22;28312;43.460;11.810;2023-06-22T17:26:02;33.50;48.30
42135;DHT22;28312;43.460;11.810;2023-06-22T17:30:09;33.30;48.30
42135;DHT22;28312;43.460;11.810;2023-06-22T17:34:15;33.20;48.30
42135;DHT22;28312;43.460;11.810;2023-06-22T17:38:22;33.10;48.20
42135;DHT22;28312;43.460;11.810;2023-06-22T17:42:28;32.90;48.40
42135;DHT22;28312;43.460;11.810;2023-06-22T17:46:35;32.80;48.40
42135;DHT22;28312;43.460;11.810;2023-06-22T17:50:40;32.60;48.40
42135;DHT22;28312;43.460;11.810;2023-06-22T17:54:43;32.40;48.40
42135;DHT22;28312;43.460;11.810;2023-06-22T17:59:07;32.20;48.50
42135;DHT22;28312;43.460;11.810;2023-06-22T18:03:12;32.00;48.60
42135;DHT22;28312;43.460;11.810;2023-06-22T18:07:16;31.70;48.80
42135;DHT22;28312;43.460;11.810;2023-06-22T18:11:20;31.60;48.70
42135;DHT22;28312;43.460;11.810;2023-06-22T18:15:24;31.40;48.90
42135;DHT22;28312;43.460;11.810;2023-06-22T18:19:28;31.20;49.00
42135;DHT22;28312;43.460;11.810;2023-06-22T18:23:33;31.10;49.10
42135;DHT22;28312;43.460;11.810;2023-06-22T18:27:41;31.00;49.20
42135;DHT22;28312;43.460;11.810;2023-06-22T18:31:45;30.80;49.30
42135;DHT22;28312;43.460;11.810;2023-06-22T18:35:50;30.60;49.60
42135;DHT22;28312;43.460;11.810;2023-06-22T18:39:55;30.40;49.40
42135;DHT22;28312;43.460;11.810;2023-06-22T18:44:00;30.30;49.60
42135;DHT22;28312;43.460;11.810;2023-06-22T18:48:04;30.10;49.50
42135;DHT22;28312;43.460;11.810;2023-06-22T18:56:15;29.60;49.60
42135;DHT22;28312;43.460;11.810;2023-06-22T19:00:30;29.60;49.70
42135;DHT22;28312;43.460;11.810;2023-06-22T19:04:33;29.40;49.60
42135;DHT22;28312;43.460;11.810;2023-06-22T19:09:12;29.30;49.70
42135;DHT22;28312;43.460;11.810;2023-06-22T19:13:20;29.10;49.80
42135;DHT22;28312;43.460;11.810;2023-06-22T19:17:23;29.00;49.70
42135;DHT22;28312;43.460;11.810;2023-06-22T19:21:27;28.90;49.80
42135;DHT22;28312;43.460;11.810;2023-06-22T19:25:30;28.80;49.80
42135;DHT22;28312;43.460;11.810;2023-06-22T19:29:37;28.60;49.90
42135;DHT22;28312;43.460;11.810;2023-06-22T19:33:40;28.60;49.90
42135;DHT22;28312;43.460;11.810;2023-06-22T19:37:46;28.40;50.00
42135;DHT22;28312;43.460;11.810;2023-06-22T19:41:50;28.10;50.10
42135;DHT22;28312;43.460;11.810;2023-06-22T19:45:53;28.00;50.10
42135;DHT22;28312;43.460;11.810;2023-06-22T19:50:01;27.70;50.20
42135;DHT22;28312;43.460;11.810;2023-06-22T19:54:07;27.60;50.20
42135;DHT22;28312;43.460;11.810;2023-06-22T19:58:16;27.20;50.50
42135;DHT22;28312;43.460;11.810;2023-06-22T20:02:25;27.00;50.70
42135;DHT22;28312;43.460;11.810;2023-06-22T20:06:29;26.70;50.70
42135;DHT22;28312;43.460;11.810;2023-06-22T20:10:37;26.40;50.90
42135;DHT22;28312;43.460;11.810;2023-06-22T20:14:41;26.10;51.20
42135;DHT22;28312;43.460;11.810;2023-06-22T20:18:46;25.80;51.40
42135;DHT22;28312;43.460;11.810;2023-06-22T20:22:49;25.70;51.40
42135;DHT22;28312;43.460;11.810;2023-06-22T20:26:53;25.40;51.70
42135;DHT22;28312;43.460;11.810;2023-06-22T20:31:02;25.10;51.90
42135;DHT22;28312;43.460;11.810;2023-06-22T20:35:08;24.90;52.20
42135;DHT22;28312;43.460;11.810;2023-06-22T20:39:11;24.60;52.20
42135;DHT22;28312;43.460;11.810;2023-06-22T20:43:15;24.40;52.40
42135;DHT22;28312;43.460;11.810;2023-06-22T20:47:19;24.30;52.60
42135;DHT22;28312;43.460;11.810;2023-06-22T20:51:24;24.10;52.80
42135;DHT22;28312;43.460;11.810;2023-06-22T20:55:30;23.80;53.00
42135;DHT22;28312;43.460;11.810;2023-06-22T20:59:36;23.60;53.20
42135;DHT22;28312;43.460;11.810;2023-06-22T21:03:40;23.50;53.40
42135;DHT22;28312;43.460;11.810;2023-06-22T21:07:43;23.40;53.50
42135;DHT22;28312;43.460;11.810;2023-06-22T21:11:46;23.50;53.70
42135;DHT22;28312;43.460;11.810;2023-06-22T21:15:50;23.50;53.80
42135;DHT22;28312;43.460;11.810;2023-06-22T21:19:53;23.50;53.90
42135;DHT22;28312;43.460;11.810;2023-06-22T21:23:56;23.40;54.00
42135;DHT22;28312;43.460;11.810;2023-06-22T21:28:00;23.40;54.00
42135;DHT22;28312;43.460;11.810;2023-06-22T21:32:04;23.30;54.00
42135;DHT22;28312;43.460;11.810;2023-06-22T21:36:07;23.10;54.30
42135;DHT22;28312;43.460;11.810;2023-06-22T21:40:11;23.00;54.40
42135;DHT22;28312;43.460;11.810;2023-06-22T21:44:14;22.90;54.50
42135;DHT22;28312;43.460;11.810;2023-06-22T21:48:18;22.90;54.40
42135;DHT22;28312;43.460;11.810;2023-06-22T21:52:23;22.70;54.60
42135;DHT22;28312;43.460;11.810;2023-06-22T21:56:26;22.60;54.70
42135;DHT22;28312;43.460;11.810;2023-06-22T22:00:30;22.50;54.90
42135;DHT22;28312;43.460;11.810;2023-06-22T22:04:34;22.40;54.80
42135;DHT22;28312;43.460;11.810;2023-06-22T22:08:38;22.20;55.00
42135;DHT22;28312;43.460;11.810;2023-06-22T22:12:42;22.20;55.10
42135;DHT22;28312;43.460;11.810;2023-06-22T22:16:45;22.20;55.10
42135;DHT22;28312;43.460;11.810;2023-06-22T22:20:49;22.10;55.10
42135;DHT22;28312;43.460;11.810;2023-06-22T22:24:52;22.00;55.20
42135;DHT22;28312;43.460;11.810;2023-06-22T22:28:56;21.90;55.40
42135;DHT22;28312;43.460;11.810;2023-06-22T22:33:01;21.80;55.60
42135;DHT22;28312;43.460;11.810;2023-06-22T22:37:05;21.70;55.60
42135;DHT22;28312;43.460;11.810;2023-06-22T22:41:08;21.70;55.60
42135;DHT22;28312;43.460;11.810;2023-06-22T22:45:12;21.70;55.70
42135;DHT22;28312;43.460;11.810;2023-06-22T22:49:15;21.60;55.90
42135;DHT22;28312;43.460;11.810;2023-06-22T22:53:18;21.60;56.00
42135;DHT22;28312;43.460;11.810;2023-06-22T22:57:22;21.60;56.00
42135;DHT22;28312;43.460;11.810;2023-06-22T23:01:25;21.60;56.10
42135;DHT22;28312;43.460;11.810;2023-06-22T23:05:29;21.50;56.20
42135;DHT22;28312;43.460;11.810;2023-06-22T23:09:33;21.50;56.40
42135;DHT22;28312;43.460;11.810;2023-06-22T23:13:37;21.50;56.60
42135;DHT22;28312;43.460;11.810;2023-06-22T23:17:41;21.60;56.70
42135;DHT22;28312;43.460;11.810;2023-06-22T23:21:46;21.60;56.80
42135;DHT22;28312;43.460;11.810;2023-06-22T23:25:52;21.70;56.90
42135;DHT22;28312;43.460;11.810;2023-06-22T23:29:55;21.80;56.70
42135;DHT22;28312;43.460;11.810;2023-06-22T23:34:02;21.90;56.50
42135;DHT22;28312;43.460;11.810;2023-06-22T23:38:07;21.80;56.40
42135;DHT22;28312;43.460;11.810;2023-06-22T23:42:14;21.80;56.40
